sensor_id;sensor_type;location;lat;lon;timestamp;pressure;altitude;pressure_sealevel;temperature;humidity
55664;BME280;41540;57.880;12.164;2022-10-17T00:04:52;100208.13;;;5.62;100.00
55664;BME280;41540;57.880;12.164;2022-10-17T00:14:52;100073.19;;;4.66;100.00
55664;BME280;41540;57.880;12.164;2022-10-17T00:24:53;100369.38;;;6.45;100.00
55664;BME280;41540;57.880;12.164;2022-10-17T00:34:53;100367.38;;;6.36;100.00
55664;BME280;41540;57.880;12.164;2022-10-17T00:55:08;100397.22;;;6.58;100.00
55664;BME280;41540;57.880;12.164;2022-10-17T01:05:12;100288.38;;;5.79;100.00
55664;BME280;41540;57.880;12.164;2022-10-17T01:15:25;100415.50;;;6.13;100.00
55664;BME280;41540;57.880;12.164;2022-10-17T01:36:15;100470.53;;;6.44;100.00
55664;BME280;41540;57.880;12.164;2022-10-17T01:46:25;100249.41;;;5.16;100.00
55664;BME280;41540;57.880;12.164;2022-10-17T01:56:29;100382.81;;;5.85;100.00
55664;BME280;41540;57.880;12.164;2022-10-17T02:06:35;100314.88;;;5.27;100.00
55664;BME280;41540;57.880;12.164;2022-10-17T02:16:42;100423.88;;;6.08;100.00
55664;BME280;41540;57.880;12.164;2022-10-17T02:27:12;100385.75;;;6.21;100.00
55664;BME280;41540;57.880;12.164;2022-10-17T02:37:18;100300.63;;;6.42;100.00
55664;BME280;41540;57.880;12.164;2022-10-17T02:47:26;100283.75;;;6.51;100.00
55664;BME280;41540;57.880;12.164;2022-10-17T02:58:07;100163.19;;;5.77;100.00
55664;BME280;41540;57.880;12.164;2022-10-17T03:07:59;100204.16;;;5.72;100.00
55664;BME280;41540;57.880;12.164;2022-10-17T03:18:00;100313.19;;;6.32;100.00
55664;BME280;41540;57.880;12.164;2022-10-17T03:28:00;100061.19;;;4.65;100.00
55664;BME280;41540;57.880;12.164;2022-10-17T03:38:01;100388.63;;;6.58;100.00
55664;BME280;41540;57.880;12.164;2022-10-17T03:48:01;100166.56;;;5.21;100.00
55664;BME280;41540;57.880;12.164;2022-10-17T03:58:01;100338.94;;;6.60;100.00
55664;BME280;41540;57.880;12.164;2022-10-17T04:08:02;100132.16;;;5.43;100.00
55664;BME280;41540;57.880;12.164;2022-10-17T04:18:02;100295.13;;;6.59;100.00
55664;BME280;41540;57.880;12.164;2022-10-17T04:28:05;100329.88;;;6.73;100.00
55664;BME280;41540;57.880;12.164;2022-10-17T04:38:05;100331.13;;;6.88;100.00
55664;BME280;41540;57.880;12.164;2022-10-17T04:48:06;100183.00;;;6.08;100.00
55664;BME280;41540;57.880;12.164;2022-10-17T04:58:06;100120.66;;;5.59;100.00
55664;BME280;41540;57.880;12.164;2022-10-17T05:08:09;100362.72;;;7.11;100.00
55664;BME280;41540;57.880;12.164;2022-10-17T05:18:09;100342.38;;;6.61;100.00
55664;BME280;41540;57.880;12.164;2022-10-17T05:28:10;100377.19;;;6.77;100.00
55664;BME280;41540;57.880;12.164;2022-10-17T05:38:10;100374.47;;;6.72;100.00
55664;BME280;41540;57.880;12.164;2022-10-17T05:48:10;100320.25;;;6.39;100.00
55664;BME280;41540;57.880;12.164;2022-10-17T05:58:11;100224.72;;;5.72;100.00
55664;BME280;41540;57.880;12.164;2022-10-17T06:08:11;100300.44;;;6.08;100.00
55664;BME280;41540;57.880;12.164;2022-10-17T06:18:11;100385.97;;;6.83;100.00
55664;BME280;41540;57.880;12.164;2022-10-17T06:28:12;100298.28;;;6.49;100.00
55664;BME280;41540;57.880;12.164;2022-10-17T06:38:12;100343.75;;;6.78;100.00
55664;BME280;41540;57.880;12.164;2022-10-17T06:48:13;100321.06;;;6.95;100.00
55664;BME280;41540;57.880;12.164;2022-10-17T06:58:13;100399.69;;;7.75;100.00
55664;BME280;41540;57.880;12.164;2022-10-17T07:08:14;100351.19;;;7.60;100.00
55664;BME280;41540;57.880;12.164;2022-10-17T07:18:14;100387.78;;;7.80;100.00
55664;BME280;41540;57.880;12.164;2022-10-17T07:28:15;100363.84;;;7.52;100.00
55664;BME280;41540;57.880;12.164;2022-10-17T07:38:15;100539.38;;;8.22;100.00
55664;BME280;41540;57.880;12.164;2022-10-17T07:48:16;100515.31;;;8.23;100.00
55664;BME280;41540;57.880;12.164;2022-10-17T07:58:16;100556.97;;;8.69;100.00
55664;BME280;41540;57.880;12.164;2022-10-17T08:08:17;100436.84;;;8.16;100.00
55664;BME280;41540;57.880;12.164;2022-10-17T08:18:17;100528.41;;;8.63;100.00
55664;BME280;41540;57.880;12.164;2022-10-17T08:28:18;100605.88;;;8.96;100.00
55664;BME280;41540;57.880;12.164;2022-10-17T08:38:18;100605.38;;;8.76;100.00
55664;BME280;41540;57.880;12.164;2022-10-17T08:48:21;100647.25;;;9.32;100.00
55664;BME280;41540;57.880;12.164;2022-10-17T08:58:30;100579.84;;;8.88;100.00
55664;BME280;41540;57.880;12.164;2022-10-17T09:08:43;100653.34;;;9.34;100.00
55664;BME280;41540;57.880;12.164;2022-10-17T09:18:55;100631.16;;;9.08;100.00
55664;BME280;41540;57.880;12.164;2022-10-17T09:28:59;100705.72;;;9.64;100.00
55664;BME280;41540;57.880;12.164;2022-10-17T09:49:13;100639.16;;;9.55;100.00
55664;BME280;41540;57.880;12.164;2022-10-17T09:59:30;100648.63;;;9.94;100.00
55664;BME280;41540;57.880;12.164;2022-10-17T10:09:32;100664.66;;;10.17;100.00
55664;BME280;41540;57.880;12.164;2022-10-17T10:19:35;100577.81;;;9.89;100.00
55664;BME280;41540;57.880;12.164;2022-10-17T10:29:38;100604.25;;;10.18;100.00
55664;BME280;41540;57.880;12.164;2022-10-17T10:40:01;100682.84;;;10.61;100.00
55664;BME280;41540;57.880;12.164;2022-10-17T10:50:16;100688.22;;;10.72;100.00
55664;BME280;41540;57.880;12.164;2022-10-17T11:00:23;100596.03;;;10.36;100.00
55664;BME280;41540;57.880;12.164;2022-10-17T11:10:36;100661.00;;;10.48;100.00
55664;BME280;41540;57.880;12.164;2022-10-17T11:31:03;100641.03;;;10.43;100.00
55664;BME280;41540;57.880;12.164;2022-10-17T11:41:05;100593.38;;;9.92;100.00
55664;BME280;41540;57.880;12.164;2022-10-17T11:51:13;100574.44;;;9.93;100.00
55664;BME280;41540;57.880;12.164;2022-10-17T12:21:27;100493.25;;;9.88;100.00
55664;BME280;41540;57.880;12.164;2022-10-17T12:31:28;100379.34;;;9.39;100.00
55664;BME280;41540;57.880;12.164;2022-10-17T13:02:14;100252.41;;;9.24;100.00
55664;BME280;41540;57.880;12.164;2022-10-17T13:12:20;100111.28;;;8.82;100.00
55664;BME280;41540;57.880;12.164;2022-10-17T13:22:28;99996.03;;;8.41;100.00
55664;BME280;41540;57.880;12.164;2022-10-17T13:32:38;100045.13;;;8.91;100.00
55664;BME280;41540;57.880;12.164;2022-10-17T13:42:39;99935.19;;;8.52;100.00
55664;BME280;41540;57.880;12.164;2022-10-17T13:52:40;99946.78;;;8.77;100.00
55664;BME280;41540;57.880;12.164;2022-10-17T14:02:41;99965.66;;;8.75;100.00
55664;BME280;41540;57.880;12.164;2022-10-17T14:12:42;99804.84;;;7.72;100.00
55664;BME280;41540;57.880;12.164;2022-10-17T14:22:42;99835.06;;;7.79;100.00
55664;BME280;41540;57.880;12.164;2022-10-17T14:32:43;99949.81;;;8.52;100.00
55664;BME280;41540;57.880;12.164;2022-10-17T14:42:44;99626.09;;;6.67;100.00
55664;BME280;41540;57.880;12.164;2022-10-17T14:53:25;100013.28;;;8.91;100.00
55664;BME280;41540;57.880;12.164;2022-10-17T15:03:24;99967.97;;;8.58;100.00
55664;BME280;41540;57.880;12.164;2022-10-17T15:13:25;99935.03;;;8.42;100.00
55664;BME280;41540;57.880;12.164;2022-10-17T15:23:25;99888.34;;;8.31;100.00
55664;BME280;41540;57.880;12.164;2022-10-17T15:33:25;99942.66;;;8.90;100.00
55664;BME280;41540;57.880;12.164;2022-10-17T15:43:26;99915.97;;;8.91;100.00
55664;BME280;41540;57.880;12.164;2022-10-17T15:53:26;99806.22;;;8.62;100.00
55664;BME280;41540;57.880;12.164;2022-10-17T16:03:27;99864.88;;;9.36;100.00
55664;BME280;41540;57.880;12.164;2022-10-17T16:13:29;99756.94;;;9.16;100.00
55664;BME280;41540;57.880;12.164;2022-10-17T16:23:29;99746.75;;;9.33;100.00
55664;BME280;41540;57.880;12.164;2022-10-17T16:33:30;99828.28;;;9.88;100.00
55664;BME280;41540;57.880;12.164;2022-10-17T16:43:30;99816.31;;;9.99;100.00
55664;BME280;41540;57.880;12.164;2022-10-17T16:53:35;99774.97;;;10.07;100.00
55664;BME280;41540;57.880;12.164;2022-10-17T17:03:41;99849.47;;;10.42;100.00
55664;BME280;41540;57.880;12.164;2022-10-17T17:13:41;99803.75;;;10.50;100.00
55664;BME280;41540;57.880;12.164;2022-10-17T17:23:42;99798.59;;;10.54;100.00
55664;BME280;41540;57.880;12.164;2022-10-17T17:33:45;99784.00;;;10.73;100.00
55664;BME280;41540;57.880;12.164;2022-10-17T17:43:47;99782.50;;;11.40;100.00
55664;BME280;41540;57.880;12.164;2022-10-17T17:53:47;99768.69;;;11.75;100.00
55664;BME280;41540;57.880;12.164;2022-10-17T18:03:52;99658.88;;;11.08;100.00
55664;BME280;41540;57.880;12.164;2022-10-17T18:13:58;99818.91;;;12.05;100.00
55664;BME280;41540;57.880;12.164;2022-10-17T18:23:58;99832.75;;;12.18;100.00
55664;BME280;41540;57.880;12.164;2022-10-17T18:33:59;99799.00;;;11.96;100.00
55664;BME280;41540;57.880;12.164;2022-10-17T18:44:00;99861.31;;;12.30;100.00
55664;BME280;41540;57.880;12.164;2022-10-17T18:54:02;99854.38;;;12.18;100.00
55664;BME280;41540;57.880;12.164;2022-10-17T19:04:02;99845.75;;;12.16;100.00
55664;BME280;41540;57.880;12.164;2022-10-17T19:14:06;99915.00;;;12.48;100.00
55664;BME280;41540;57.880;12.164;2022-10-17T19:24:17;99866.50;;;12.18;100.00
55664;BME280;41540;57.880;12.164;2022-10-17T19:34:38;99921.91;;;12.52;100.00
55664;BME280;41540;57.880;12.164;2022-10-17T19:44:40;99919.31;;;12.43;100.00
55664;BME280;41540;57.880;12.164;2022-10-17T19:54:43;99940.97;;;12.54;100.00
55664;BME280;41540;57.880;12.164;2022-10-17T20:04:43;99933.16;;;12.39;100.00
55664;BME280;41540;57.880;12.164;2022-10-17T20:14:47;99944.41;;;12.32;100.00
55664;BME280;41540;57.880;12.164;2022-10-17T20:24:48;99837.88;;;11.56;100.00
55664;BME280;41540;57.880;12.164;2022-10-17T20:34:49;99855.16;;;11.48;100.00
55664;BME280;41540;57.880;12.164;2022-10-17T20:44:49;99992.00;;;12.09;100.00
55664;BME280;41540;57.880;12.164;2022-10-17T20:54:50;99934.72;;;11.54;100.00
55664;BME280;41540;57.880;12.164;2022-10-17T21:04:50;99984.00;;;11.54;100.00
55664;BME280;41540;57.880;12.164;2022-10-17T21:14:51;99906.75;;;10.89;100.00
55664;BME280;41540;57.880;12.164;2022-10-17T21:24:51;100050.59;;;11.59;100.00
55664;BME280;41540;57.880;12.164;2022-10-17T21:34:51;100023.66;;;11.31;100.00
55664;BME280;41540;57.880;12.164;2022-10-17T21:44:52;99962.78;;;10.75;100.00
55664;BME280;41540;57.880;12.164;2022-10-17T21:54:52;100072.94;;;11.32;100.00
55664;BME280;41540;57.880;12.164;2022-10-17T22:04:53;99878.44;;;10.01;100.00
55664;BME280;41540;57.880;12.164;2022-10-17T22:14:53;99967.63;;;10.33;100.00
55664;BME280;41540;57.880;12.164;2022-10-17T22:24:53;100080.41;;;10.94;100.00
55664;BME280;41540;57.880;12.164;2022-10-17T22:34:53;100115.06;;;11.05;100.00
55664;BME280;41540;57.880;12.164;2022-10-17T22:44:54;100056.88;;;10.69;100.00
55664;BME280;41540;57.880;12.164;2022-10-17T22:54:54;100087.06;;;10.67;100.00
55664;BME280;41540;57.880;12.164;2022-10-17T23:04:54;100095.66;;;10.62;100.00
55664;BME280;41540;57.880;12.164;2022-10-17T23:14:55;100047.88;;;10.33;100.00
55664;BME280;41540;57.880;12.164;2022-10-17T23:24:55;100104.31;;;10.65;100.00
55664;BME280;41540;57.880;12.164;2022-10-17T23:34:55;100050.31;;;10.20;100.00
55664;BME280;41540;57.880;12.164;2022-10-17T23:44:56;100090.38;;;10.49;100.00
55664;BME280;41540;57.880;12.164;2022-10-17T23:54:56;100023.31;;;9.98;100.00
